createdAt,value
2017-12-24T00:02:36.742Z,3.53
2017-12-24T00:17:36.248Z,3.59
2017-12-24T00:32:35.122Z,3.69
2017-12-24T00:47:37.039Z,3.75
2017-12-24T01:02:34.973Z,3.77
2017-12-24T01:17:34.463Z,3.88
2017-12-24T01:32:34.392Z,3.95
2017-12-24T01:47:51.111Z,3.98
2017-12-24T02:02:34.230Z,4.07
2017-12-24T02:17:36.677Z,4.18
2017-12-24T02:32:34.579Z,4.26
2017-12-24T02:47:34.967Z,4.38
2017-12-24T03:02:34.528Z,4.47
2017-12-24T03:17:34.887Z,4.53
2017-12-24T03:32:34.801Z,4.61
2017-12-24T03:47:34.654Z,4.71
2017-12-24T04:02:34.663Z,4.85
2017-12-24T04:17:34.595Z,4.93
2017-12-24T04:47:35.589Z,5.08
2017-12-24T05:02:34.863Z,5.13
2017-12-24T05:17:33.763Z,5.19
2017-12-24T05:32:35.196Z,5.28
2017-12-24T06:02:35.003Z,5.37
2017-12-24T06:17:34.484Z,5.60
2017-12-24T06:32:34.415Z,6.05
2017-12-24T09:17:36.710Z,6.86
2017-12-24T09:47:37.011Z,7.63
2017-12-24T10:02:34.895Z,8.54
2017-12-24T10:17:34.242Z,8.66
2017-12-24T10:32:35.257Z,8.48
2017-12-24T10:47:34.163Z,8.29
2017-12-24T11:02:35.051Z,8.03
2017-12-24T11:17:35.470Z,8.04
2017-12-24T11:32:34.398Z,8.19
2017-12-24T11:47:36.324Z,9.01
2017-12-24T12:02:34.258Z,10.32
2017-12-24T12:17:34.693Z,11.08
2017-12-24T12:32:34.626Z,10.89
2017-12-24T12:47:34.609Z,9.68
2017-12-24T13:02:34.486Z,9.08
2017-12-24T13:17:40.991Z,8.69
2017-12-24T13:32:37.924Z,8.37
2017-12-24T13:47:36.778Z,8.06
2017-12-24T14:02:34.763Z,7.90
2017-12-24T14:17:34.177Z,7.85
2017-12-24T14:32:38.140Z,7.84
2017-12-24T14:47:35.023Z,7.84
2017-12-24T15:02:34.918Z,7.88
2017-12-24T15:17:34.698Z,12.65
2017-12-24T15:32:36.663Z,9.65
2017-12-24T15:47:34.566Z,8.77
2017-12-24T16:02:34.555Z,8.38
2017-12-24T16:17:34.447Z,8.20
2017-12-24T16:32:34.656Z,7.97
2017-12-24T16:47:37.593Z,7.77
